Main page
METAR-TAF:

METAR-TAF

Airports :

Honiara International Airport

Honiara, Guadalcanal, Solomon Islands

latitude: 09-25S, longitude: 160-03E, elevation: 8 m

Current weather observation

The report was made 28 minutes ago, at 01:00 UTC
Wind 8 kt from the Northeast
Temperature 31°C
Humidity 66%
Pressure 1009 hPa
Visibility 10 km or more
Few clouds at a height of 2000 ft
Few clouds at a height of 2100 ft, Cumulonimbus.
Scattered clouds at a height of 30000 ft
haze

METAR: AGGH 190100Z 05008KT 9999 HZ FEW020 FEW021CB SCT300 31/24 Q1009

Time: 12:28 (01:28 UTC)

Forecast

The report was made 2 hours and 18 minutes ago, at 23:10 UTC
Forecast valid from 19 at 00 UTC to 19 at 24 UTC
Wind 8 kt from the North/Northwest
Visibility: 1010 m
Few clouds at a height of 1800 ft
Scattered clouds at a height of 3000 ft

TAF: AGGH 182310Z 1900/1924 34008KT 9999 FEW018 SCT030 T 30 31 32 30 Q 1011 1009 1008 1010

Weather observations and forecasts of more than 4000 airports (METAR and TAF reports).

The available stations are represented by yellow and red dots on the map.

Hover mouse over dot to see the name of the station.

Then click to see weather observations and forecasts.

To change the map : click on the green buttons with a black cross to zoom in, on the green button with a dash to zoom out, or on the green arrows for adjacent maps.


METAR-TAF: